Time;durP1;ratioP1;P1;durP2;ratioP2;P2;SDS_P1;SDS_P2;PMS_P1;PMS_P2;Temp;Humidity;BMP_temperature;BMP_pressure;BME280_temperature;BME280_humidity;BME280_pressure;Samples;Min_cycle;Max_cycle;Signal;HPM_P1;HPM_P2
2021/10/26 00:01:14;;;;;;;5.80;2.65;;;7.60;99.90;;;;;;5105403;28;20036;-82
2021/10/26 00:03:40;;;;;;;6.28;2.92;;;7.60;99.90;;;;;;5100445;28;20091;-83
2021/10/26 00:06:05;;;;;;;4.50;2.40;;;7.60;99.90;;;;;;5099641;28;20093;-84
2021/10/26 00:08:31;;;;;;;5.07;2.00;;;7.60;99.90;;;;;;5088351;28;20481;-83
2021/10/26 00:10:57;;;;;;;5.25;2.40;;;7.60;99.90;;;;;;5079182;28;20036;-82
2021/10/26 00:13:23;;;;;;;4.63;2.17;;;7.60;99.90;;;;;;5077051;28;20119;-82
2021/10/26 00:15:49;;;;;;;5.13;2.20;;;7.50;99.90;;;;;;5076211;28;20036;-83
2021/10/26 00:18:15;;;;;;;5.43;2.63;;;7.50;99.90;;;;;;5077634;28;20036;-83
2021/10/26 00:20:41;;;;;;;4.22;2.28;;;7.60;99.90;;;;;;5076624;28;20032;-82
2021/10/26 00:23:07;;;;;;;3.90;2.25;;;7.50;99.90;;;;;;5075509;28;20037;-83
2021/10/26 00:25:33;;;;;;;6.90;2.97;;;7.50;99.90;;;;;;5086269;28;20027;-81
2021/10/26 00:27:58;;;;;;;5.80;2.28;;;7.50;99.90;;;;;;5091188;28;20033;-82
2021/10/26 00:30:25;;;;;;;5.72;2.63;;;7.50;99.90;;;;;;5076753;28;20439;-83
2021/10/26 00:32:51;;;;;;;5.63;2.33;;;7.50;99.90;;;;;;5090522;28;20029;-82
2021/10/26 00:35:17;;;;;;;6.55;2.85;;;7.50;99.90;;;;;;5076081;28;20460;-82
2021/10/26 00:37:45;;;;;;;6.10;2.63;;;7.50;99.90;;;;;;5076592;28;20043;-83
2021/10/26 00:40:13;;;;;;;5.90;2.67;;;7.50;99.90;;;;;;5077239;28;20493;-83
2021/10/26 00:42:38;;;;;;;5.60;2.57;;;7.60;99.90;;;;;;5082447;28;20040;-81
2021/10/26 00:45:05;;;;;;;7.60;2.97;;;7.60;99.90;;;;;;5075966;28;20033;-82
2021/10/26 00:47:31;;;;;;;6.68;2.95;;;7.60;99.90;;;;;;5076395;28;20033;-82
2021/10/26 00:49:56;;;;;;;5.18;2.22;;;7.60;99.90;;;;;;5076622;28;20076;-83
2021/10/26 00:52:23;;;;;;;5.20;2.60;;;7.60;99.90;;;;;;5077161;28;20032;-82
2021/10/26 00:54:49;;;;;;;5.63;2.63;;;7.60;99.90;;;;;;5076020;28;20112;-83
2021/10/26 00:57:18;;;;;;;6.07;2.53;;;7.70;99.90;;;;;;5076256;28;20055;-82
2021/10/26 00:59:43;;;;;;;6.05;2.55;;;7.70;99.90;;;;;;5074555;28;20824;-82
2021/10/26 01:02:09;;;;;;;5.75;2.67;;;7.70;99.90;;;;;;5077474;28;20028;-84
2021/10/26 01:04:35;;;;;;;5.75;2.55;;;7.70;99.90;;;;;;5075925;28;20037;-82
2021/10/26 01:07:00;;;;;;;4.45;2.50;;;7.80;99.90;;;;;;5076885;28;20021;-82
2021/10/26 01:09:27;;;;;;;4.88;2.30;;;7.80;99.90;;;;;;5077901;28;20016;-82
2021/10/26 01:11:53;;;;;;;5.43;2.80;;;7.80;99.90;;;;;;5086413;28;20028;-83
2021/10/26 01:14:19;;;;;;;5.22;2.30;;;7.80;99.90;;;;;;5094689;28;20028;-83
2021/10/26 01:16:45;;;;;;;3.90;2.15;;;7.80;99.90;;;;;;5080734;28;20039;-82
2021/10/26 01:19:10;;;;;;;5.95;2.72;;;7.80;99.90;;;;;;5076163;28;20028;-82
2021/10/26 01:21:36;;;;;;;5.45;2.70;;;7.90;99.90;;;;;;5074770;28;20028;-83
2021/10/26 01:24:02;;;;;;;3.95;1.90;;;7.90;99.90;;;;;;5077552;28;20485;-83
2021/10/26 01:26:28;;;;;;;5.65;2.40;;;7.90;99.90;;;;;;5077793;28;20040;-83
2021/10/26 01:28:54;;;;;;;4.60;2.75;;;7.90;99.90;;;;;;5078260;28;20082;-83
2021/10/26 01:31:20;;;;;;;5.35;2.55;;;8.00;99.90;;;;;;5077736;28;20024;-84
2021/10/26 01:33:45;;;;;;;5.15;2.58;;;8.00;99.90;;;;;;5083393;28;20047;-84
2021/10/26 01:36:11;;;;;;;4.43;2.28;;;8.00;99.90;;;;;;5083320;28;20245;-84
2021/10/26 01:38:37;;;;;;;6.38;3.00;;;8.10;99.90;;;;;;5084086;28;20021;-84
2021/10/26 01:41:02;;;;;;;4.65;2.45;;;8.10;99.90;;;;;;5079328;28;20024;-83
2021/10/26 01:43:28;;;;;;;6.30;2.70;;;8.10;99.90;;;;;;5079594;28;20024;-84
2021/10/26 01:45:54;;;;;;;7.18;2.65;;;8.10;99.90;;;;;;5078206;28;20387;-84
2021/10/26 01:48:20;;;;;;;6.07;2.72;;;8.10;99.90;;;;;;5090230;28;20016;-83
2021/10/26 01:50:46;;;;;;;6.55;2.78;;;8.10;99.90;;;;;;5095267;28;20077;-84
2021/10/26 01:53:12;;;;;;;5.38;1.90;;;8.10;99.90;;;;;;5082640;28;20033;-84
2021/10/26 01:55:38;;;;;;;5.68;2.60;;;8.10;99.90;;;;;;5082256;28;20016;-83
2021/10/26 01:58:04;;;;;;;3.97;2.30;;;8.10;99.90;;;;;;5058275;28;20037;-84
2021/10/26 02:00:30;;;;;;;4.57;2.40;;;8.10;99.90;;;;;;5074792;28;20029;-84
2021/10/26 02:02:55;;;;;;;6.65;2.55;;;8.10;99.90;;;;;;5088273;23;20456;-80
2021/10/26 02:05:21;;;;;;;4.75;2.33;;;8.20;99.90;;;;;;5058409;28;20027;-79
2021/10/26 02:07:46;;;;;;;6.35;2.55;;;8.20;99.90;;;;;;5058669;28;20021;-81
2021/10/26 02:10:13;;;;;;;4.72;2.53;;;8.20;99.90;;;;;;5057738;28;20037;-79
2021/10/26 02:12:39;;;;;;;5.82;2.40;;;8.20;99.90;;;;;;5048822;28;20621;-79
2021/10/26 02:15:06;;;;;;;4.95;2.50;;;8.20;99.90;;;;;;5038971;28;20631;-79
2021/10/26 02:17:32;;;;;;;4.93;2.38;;;8.20;99.90;;;;;;5040921;28;20057;-80
2021/10/26 02:19:57;;;;;;;5.05;2.63;;;8.20;99.90;;;;;;5037416;28;20033;-80
2021/10/26 02:22:23;;;;;;;7.88;2.88;;;8.30;99.90;;;;;;5045146;28;20030;-80
2021/10/26 02:24:49;;;;;;;6.50;2.55;;;8.30;99.90;;;;;;5049664;28;20091;-80
2021/10/26 02:27:15;;;;;;;5.38;2.78;;;8.30;99.90;;;;;;5061168;28;20570;-81
2021/10/26 02:29:41;;;;;;;4.47;2.30;;;8.30;99.90;;;;;;5061837;28;20052;-81
2021/10/26 02:32:07;;;;;;;5.93;2.63;;;8.30;99.90;;;;;;5052821;28;20103;-80
2021/10/26 02:34:33;;;;;;;6.00;2.70;;;8.30;99.90;;;;;;5058017;28;20031;-80
2021/10/26 02:36:58;;;;;;;7.57;2.78;;;8.30;99.90;;;;;;5042860;28;20112;-80
2021/10/26 02:39:24;;;;;;;4.25;2.20;;;8.30;99.90;;;;;;5042933;28;20041;-81
2021/10/26 02:41:50;;;;;;;5.80;2.58;;;8.30;99.90;;;;;;5043419;28;20029;-80
2021/10/26 02:44:16;;;;;;;5.28;2.60;;;8.30;99.90;;;;;;5041117;28;20031;-81
2021/10/26 02:46:42;;;;;;;5.30;2.90;;;8.30;99.90;;;;;;5050387;28;20108;-80
2021/10/26 02:49:09;;;;;;;4.50;2.75;;;8.30;99.90;;;;;;5057763;28;20030;-80
2021/10/26 02:51:35;;;;;;;3.88;2.33;;;8.30;99.90;;;;;;5042950;28;20030;-80
2021/10/26 02:54:01;;;;;;;7.00;2.92;;;8.30;99.90;;;;;;5042505;28;20030;-80
2021/10/26 02:56:27;;;;;;;4.85;2.83;;;8.30;99.90;;;;;;5043173;28;20017;-81
2021/10/26 02:58:52;;;;;;;7.05;3.03;;;8.30;99.90;;;;;;5043345;28;20044;-81
2021/10/26 03:01:18;;;;;;;8.70;3.10;;;8.30;99.90;;;;;;5040619;28;20053;-81
2021/10/26 03:03:44;;;;;;;5.00;2.42;;;8.20;99.90;;;;;;5043210;28;20036;-80
2021/10/26 03:06:10;;;;;;;6.72;2.92;;;8.20;99.90;;;;;;5043072;28;20056;-81
2021/10/26 03:08:35;;;;;;;5.30;3.30;;;8.20;99.90;;;;;;5043056;28;20067;-80
2021/10/26 03:11:01;;;;;;;5.05;2.58;;;8.10;99.90;;;;;;5040632;28;20047;-81
2021/10/26 03:13:27;;;;;;;7.03;3.17;;;8.10;99.90;;;;;;5042983;28;20044;-81
2021/10/26 03:15:52;;;;;;;6.93;3.40;;;8.10;99.90;;;;;;5042001;28;20034;-81
2021/10/26 03:18:18;;;;;;;6.43;3.33;;;8.10;99.90;;;;;;5040456;28;20562;-81
2021/10/26 03:20:44;;;;;;;6.50;2.97;;;8.10;99.90;;;;;;5041098;28;20044;-81
2021/10/26 03:23:10;;;;;;;6.25;3.08;;;8.10;99.90;;;;;;5042454;28;20029;-81
2021/10/26 03:25:36;;;;;;;4.95;2.50;;;8.10;99.90;;;;;;5042661;28;20056;-81
2021/10/26 03:28:01;;;;;;;5.75;3.15;;;8.10;99.90;;;;;;5049753;28;20415;-81
2021/10/26 03:30:27;;;;;;;5.65;3.30;;;8.10;99.90;;;;;;5044035;28;20127;-81
2021/10/26 03:32:53;;;;;;;5.75;2.78;;;8.10;99.90;;;;;;5040600;28;20494;-81
2021/10/26 03:35:18;;;;;;;7.00;2.90;;;8.10;99.90;;;;;;5043927;28;20048;-81
2021/10/26 03:37:44;;;;;;;5.30;3.00;;;8.00;99.90;;;;;;5041600;28;20084;-81
2021/10/26 03:40:12;;;;;;;6.65;3.63;;;8.00;99.90;;;;;;5040307;28;20087;-81
2021/10/26 03:42:38;;;;;;;6.70;2.90;;;7.90;99.90;;;;;;5045283;28;20045;-81
2021/10/26 03:45:05;;;;;;;6.20;3.30;;;7.90;99.90;;;;;;5044399;28;20236;-81
2021/10/26 03:47:30;;;;;;;7.57;3.35;;;7.90;99.90;;;;;;5053294;28;20087;-81
2021/10/26 03:49:56;;;;;;;6.63;3.30;;;7.90;99.90;;;;;;5056859;28;20083;-80
2021/10/26 03:52:22;;;;;;;6.07;2.88;;;7.90;99.90;;;;;;5044387;28;20029;-81
2021/10/26 03:54:49;;;;;;;8.52;2.83;;;7.80;99.90;;;;;;5041774;28;20399;-81
2021/10/26 03:57:15;;;;;;;6.13;3.17;;;7.70;99.90;;;;;;5042634;28;20033;-80
2021/10/26 03:59:41;;;;;;;6.07;2.92;;;7.70;99.90;;;;;;5042171;28;20085;-81
2021/10/26 04:02:12;;;;;;;6.53;3.10;;;7.70;99.90;;;;;;5042476;28;20136;-81
2021/10/26 04:04:39;;;;;;;7.30;3.47;;;7.70;99.90;;;;;;5041782;28;20025;-80
2021/10/26 04:07:08;;;;;;;6.13;3.13;;;7.70;99.90;;;;;;5042897;28;20119;-81
2021/10/26 04:10:00;;;;;;;7.35;3.60;;;7.70;99.90;;;;;;5039566;28;20029;-81
2021/10/26 04:12:25;;;;;;;5.70;2.78;;;7.70;99.90;;;;;;5056510;28;20029;-80
2021/10/26 04:14:54;;;;;;;6.13;3.15;;;7.70;99.90;;;;;;5057018;28;20033;-80
2021/10/26 04:17:21;;;;;;;7.32;3.20;;;7.60;99.90;;;;;;5061134;28;20417;-81
2021/10/26 04:19:48;;;;;;;6.57;3.28;;;7.60;99.90;;;;;;5050398;28;20424;-80
2021/10/26 04:22:15;;;;;;;7.03;3.38;;;7.60;99.90;;;;;;5052395;28;20060;-81
2021/10/26 04:24:40;;;;;;;5.57;3.13;;;7.60;99.90;;;;;;5057096;28;20017;-80
2021/10/26 04:27:06;;;;;;;5.75;3.13;;;7.50;99.90;;;;;;5053443;28;20032;-80
2021/10/26 04:29:31;;;;;;;7.00;3.10;;;7.50;99.90;;;;;;5057093;28;20044;-80
2021/10/26 04:31:57;;;;;;;4.85;2.70;;;7.50;99.90;;;;;;5058797;28;20025;-80
2021/10/26 04:34:23;;;;;;;7.88;3.20;;;7.60;99.90;;;;;;5053136;28;21082;-81
2021/10/26 04:36:48;;;;;;;6.25;3.53;;;7.60;99.90;;;;;;5057890;28;20033;-81
2021/10/26 04:39:14;;;;;;;6.20;2.60;;;7.60;99.90;;;;;;5052662;28;20034;-81
2021/10/26 04:41:40;;;;;;;7.40;3.17;;;7.60;99.90;;;;;;5047869;28;20030;-81
2021/10/26 04:44:06;;;;;;;6.75;3.20;;;7.60;99.90;;;;;;5048344;28;20018;-80
2021/10/26 04:46:34;;;;;;;5.72;3.03;;;7.60;99.90;;;;;;5038487;28;20041;-80
2021/10/26 04:49:00;;;;;;;6.05;2.90;;;7.70;99.90;;;;;;5057217;28;20027;-80
2021/10/26 04:51:26;;;;;;;6.22;3.33;;;7.70;99.90;;;;;;5060160;28;20063;-80
2021/10/26 04:53:52;;;;;;;7.13;3.20;;;7.70;99.90;;;;;;5056289;28;20025;-80
2021/10/26 04:56:17;;;;;;;6.35;3.20;;;7.70;99.90;;;;;;5057653;28;20339;-83
2021/10/26 04:58:43;;;;;;;6.72;3.33;;;7.70;99.90;;;;;;5059305;28;20588;-80
2021/10/26 05:01:09;;;;;;;7.07;3.28;;;7.70;99.90;;;;;;5048958;28;20021;-80
2021/10/26 05:03:34;;;;;;;5.68;2.97;;;7.70;99.90;;;;;;5058698;28;20060;-80
2021/10/26 05:06:02;;;;;;;5.32;3.13;;;7.80;99.90;;;;;;5047064;28;20470;-80
2021/10/26 05:08:28;;;;;;;6.18;3.03;;;7.70;99.90;;;;;;5044239;28;20033;-80
2021/10/26 05:10:54;;;;;;;6.72;3.10;;;7.80;99.90;;;;;;5045955;28;20089;-80
2021/10/26 05:13:19;;;;;;;5.30;2.75;;;7.80;99.90;;;;;;5053103;28;20063;-80
2021/10/26 05:15:45;;;;;;;5.70;2.70;;;7.80;99.90;;;;;;5061449;28;20025;-80
2021/10/26 05:18:13;;;;;;;5.93;3.00;;;7.80;99.90;;;;;;5058930;28;20033;-80
2021/10/26 05:20:39;;;;;;;5.10;2.58;;;7.80;99.90;;;;;;5051329;28;20898;-80
2021/10/26 05:23:06;;;;;;;4.80;2.58;;;7.80;99.90;;;;;;5058797;28;20051;-79
2021/10/26 05:25:33;;;;;;;7.10;2.85;;;7.80;99.90;;;;;;5055600;28;20047;-79
2021/10/26 05:27:58;;;;;;;4.70;2.60;;;7.80;99.90;;;;;;5066665;28;20465;-79
2021/10/26 05:30:24;;;;;;;5.45;2.75;;;7.80;99.90;;;;;;5053096;28;20079;-79
2021/10/26 05:32:50;;;;;;;6.32;2.95;;;7.70;99.90;;;;;;5044653;28;20041;-79
2021/10/26 05:35:16;;;;;;;6.50;2.83;;;7.70;99.90;;;;;;5044987;28;20021;-79
2021/10/26 05:37:42;;;;;;;4.90;2.88;;;7.70;99.90;;;;;;5052232;28;20025;-80
2021/10/26 05:40:08;;;;;;;6.30;3.30;;;7.70;99.90;;;;;;5052526;28;20114;-79
2021/10/26 05:42:34;;;;;;;6.22;3.03;;;7.60;99.90;;;;;;5047420;28;20045;-79
2021/10/26 05:45:00;;;;;;;5.78;3.05;;;7.60;99.90;;;;;;5054817;28;20021;-79
2021/10/26 05:47:26;;;;;;;6.55;3.00;;;7.60;99.90;;;;;;5052895;28;20025;-79
2021/10/26 05:49:52;;;;;;;5.50;3.15;;;7.60;99.90;;;;;;5050837;28;20028;-79
2021/10/26 05:52:17;;;;;;;6.27;3.37;;;7.60;99.90;;;;;;5054384;28;20430;-79
2021/10/26 05:54:43;;;;;;;7.27;3.60;;;7.60;99.90;;;;;;5052138;28;20414;-79
2021/10/26 05:57:09;;;;;;;6.37;3.10;;;7.50;99.90;;;;;;5053292;28;20025;-79
2021/10/26 05:59:34;;;;;;;5.13;2.90;;;7.40;99.90;;;;;;5054842;28;20084;-79
2021/10/26 06:02:00;;;;;;;7.13;3.03;;;7.40;99.90;;;;;;5053359;28;20766;-79
2021/10/26 06:04:26;;;;;;;6.33;3.07;;;7.40;99.90;;;;;;5061829;28;20043;-80
2021/10/26 06:06:51;;;;;;;6.23;3.37;;;7.40;99.90;;;;;;5054655;28;20025;-79
2021/10/26 06:09:18;;;;;;;6.50;3.07;;;7.40;99.90;;;;;;5057208;28;20386;-79
2021/10/26 06:11:47;;;;;;;6.10;3.10;;;7.40;99.90;;;;;;5050348;28;20107;-79
2021/10/26 06:14:13;;;;;;;7.05;3.50;;;7.40;99.90;;;;;;5054921;28;20037;-79
2021/10/26 06:16:40;;;;;;;11.00;3.90;;;7.50;99.90;;;;;;5038047;28;20029;-79
2021/10/26 06:19:06;;;;;;;6.70;3.30;;;7.40;99.90;;;;;;5051345;28;20058;-79
2021/10/26 06:21:32;;;;;;;7.50;3.30;;;7.40;99.90;;;;;;5048933;28;20137;-79
2021/10/26 06:23:59;;;;;;;6.30;3.40;;;7.50;99.90;;;;;;5048524;28;20022;-79
2021/10/26 06:26:25;;;;;;;8.20;3.30;;;7.50;99.90;;;;;;5038330;28;20037;-79
2021/10/26 06:28:51;;;;;;;6.78;2.97;;;7.50;99.90;;;;;;5054524;28;20084;-79
2021/10/26 06:31:17;;;;;;;6.20;3.13;;;7.50;99.90;;;;;;5049028;28;20089;-79
2021/10/26 06:33:43;;;;;;;6.20;3.05;;;7.50;99.90;;;;;;5053863;28;20056;-79
2021/10/26 06:36:09;;;;;;;5.57;3.20;;;7.60;99.90;;;;;;5037112;28;20038;-79
2021/10/26 06:38:35;;;;;;;5.82;3.33;;;7.60;99.90;;;;;;5037712;28;20029;-79
2021/10/26 06:41:03;;;;;;;10.85;3.60;;;7.70;99.90;;;;;;5042633;28;20029;-79
2021/10/26 06:43:28;;;;;;;8.45;3.60;;;7.70;99.90;;;;;;5035812;28;20026;-80
2021/10/26 06:45:54;;;;;;;9.60;3.90;;;7.80;99.90;;;;;;5034387;28;20032;-80
2021/10/26 06:48:20;;;;;;;6.25;3.63;;;7.80;99.90;;;;;;5040853;28;20033;-79
2021/10/26 06:50:46;;;;;;;6.65;3.53;;;7.80;99.90;;;;;;5042498;28;20120;-78
2021/10/26 06:53:12;;;;;;;9.98;4.00;;;7.90;99.90;;;;;;5050303;28;20028;-79
2021/10/26 06:55:37;;;;;;;6.78;3.58;;;7.90;99.90;;;;;;5056546;28;20037;-79
2021/10/26 06:58:04;;;;;;;7.40;3.70;;;8.00;99.90;;;;;;5046862;28;20485;-79
2021/10/26 07:00:31;;;;;;;7.93;3.47;;;8.00;99.90;;;;;;5031396;28;20128;-76
2021/10/26 07:03:02;;;;;;;7.85;3.72;;;8.10;99.90;;;;;;5031433;28;20060;-76
2021/10/26 07:05:30;;;;;;;7.40;3.70;;;8.10;99.90;;;;;;5033232;28;20438;-77
2021/10/26 07:07:55;;;;;;;8.88;4.00;;;8.20;99.90;;;;;;5032816;28;20030;-76
2021/10/26 07:10:22;;;;;;;7.57;3.92;;;8.20;99.90;;;;;;5036858;28;20175;-76
2021/10/26 07:12:49;;;;;;;8.90;3.67;;;8.30;99.90;;;;;;5051937;28;20435;-77
2021/10/26 07:15:15;;;;;;;6.32;3.35;;;8.30;99.90;;;;;;5029150;28;20033;-78
2021/10/26 07:17:42;;;;;;;6.32;3.17;;;8.30;99.90;;;;;;5033424;28;20025;-79
2021/10/26 07:20:13;;;;;;;6.47;3.58;;;8.40;99.90;;;;;;5036231;28;20029;-78
2021/10/26 07:22:41;;;;;;;8.10;3.88;;;8.40;99.90;;;;;;5051908;28;20474;-79
2021/10/26 07:25:10;;;;;;;7.53;3.67;;;8.50;99.90;;;;;;5043425;28;20030;-79
2021/10/26 07:27:39;;;;;;;6.70;3.88;;;8.60;99.90;;;;;;5038086;28;20024;-79
2021/10/26 07:30:07;;;;;;;7.88;3.95;;;8.60;99.90;;;;;;5039431;28;20117;-78
2021/10/26 07:32:33;;;;;;;6.82;3.28;;;8.70;99.90;;;;;;5041513;28;20025;-77
2021/10/26 07:34:59;;;;;;;7.55;3.28;;;8.70;99.90;;;;;;5042670;28;20070;-78
2021/10/26 07:37:33;;;;;;;6.47;3.35;;;8.80;99.90;;;;;;5052575;28;20025;-77
2021/10/26 07:40:00;;;;;;;5.45;2.60;;;8.80;99.90;;;;;;5036326;28;20101;-78
2021/10/26 07:42:26;;;;;;;6.70;3.92;;;8.90;99.90;;;;;;5047647;28;20116;-77
2021/10/26 07:44:52;;;;;;;7.55;4.22;;;9.00;99.90;;;;;;5046396;28;20393;-78
2021/10/26 07:47:20;;;;;;;6.57;3.60;;;9.00;99.90;;;;;;5038002;28;20055;-78
2021/10/26 07:49:47;;;;;;;7.07;3.33;;;9.10;99.90;;;;;;5014937;28;20029;-77
2021/10/26 07:52:18;;;;;;;7.05;4.18;;;9.20;99.90;;;;;;5051679;28;20033;-83
2021/10/26 07:54:50;;;;;;;8.40;3.95;;;9.30;99.90;;;;;;5046486;28;20041;-84
2021/10/26 07:57:16;;;;;;;7.68;4.07;;;9.50;99.90;;;;;;5041560;28;20029;-85
2021/10/26 07:59:43;;;;;;;7.53;3.92;;;9.70;99.90;;;;;;5041704;28;20025;-85
2021/10/26 08:02:09;;;;;;;8.15;4.22;;;9.80;99.90;;;;;;5046822;28;20067;-83
2021/10/26 08:04:36;;;;;;;7.80;3.95;;;9.90;99.90;;;;;;5036504;28;20032;-84
2021/10/26 08:07:02;;;;;;;9.07;3.90;;;10.00;99.90;;;;;;5052541;28;20128;-83
2021/10/26 08:09:27;;;;;;;7.18;4.00;;;10.10;99.90;;;;;;5047453;28;20165;-83
2021/10/26 08:11:53;;;;;;;7.15;3.75;;;10.20;99.90;;;;;;5036008;28;20029;-83
2021/10/26 08:14:19;;;;;;;7.95;3.78;;;10.10;99.90;;;;;;5036752;28;20025;-83
2021/10/26 08:16:44;;;;;;;6.50;3.85;;;10.10;99.90;;;;;;5044071;28;20029;-86
2021/10/26 08:19:10;;;;;;;6.88;4.10;;;10.00;99.90;;;;;;5046812;28;20096;-85
2021/10/26 08:21:36;;;;;;;8.13;4.22;;;10.00;99.90;;;;;;5048572;28;20095;-86
2021/10/26 08:24:02;;;;;;;8.02;4.65;;;10.00;99.90;;;;;;5041644;28;20053;-85
2021/10/26 08:26:45;;;;;;;7.80;4.13;;;10.10;99.90;;;;;;5034363;28;20084;-86
2021/10/26 08:37:08;;;;;;;5.95;3.92;;;10.60;99.90;;;;;;5030114;28;20026;-84
2021/10/26 08:39:36;;;;;;;8.27;4.35;;;10.70;99.90;;;;;;5026220;28;20107;-85
2021/10/26 08:42:03;;;;;;;8.60;4.03;;;10.80;99.90;;;;;;5028291;28;20053;-85
2021/10/26 08:44:29;;;;;;;9.73;3.95;;;11.00;99.90;;;;;;5030051;28;20119;-86
2021/10/26 08:46:55;;;;;;;6.32;3.47;;;11.00;99.90;;;;;;5036812;28;20036;-86
2021/10/26 08:49:22;;;;;;;7.43;3.90;;;11.20;99.90;;;;;;5049405;28;20036;-85
2021/10/26 08:51:51;;;;;;;6.72;3.95;;;11.30;99.90;;;;;;5038428;28;20033;-85
2021/10/26 08:54:17;;;;;;;7.05;3.88;;;11.40;99.90;;;;;;5042655;28;20033;-85
2021/10/26 08:56:44;;;;;;;5.60;3.22;;;11.50;99.90;;;;;;5042523;28;20633;-85
2021/10/26 08:59:10;;;;;;;5.03;2.72;;;11.50;99.90;;;;;;5049399;28;20094;-86
2021/10/26 09:01:36;;;;;;;6.43;3.22;;;11.50;99.90;;;;;;5039484;28;20033;-85
2021/10/26 09:04:09;;;;;;;6.57;3.58;;;11.50;99.90;;;;;;5029086;28;20401;-85
2021/10/26 09:06:45;;;;;;;7.07;3.25;;;11.40;99.90;;;;;;5027876;28;20055;-85
2021/10/26 09:09:16;;;;;;;7.82;2.95;;;11.50;99.90;;;;;;5046908;28;20032;-85
2021/10/26 09:17:31;;;;;;;7.13;3.40;;;11.40;99.90;;;;;;5027846;28;20519;-85
2021/10/26 09:20:00;;;;;;;6.75;3.28;;;11.40;99.90;;;;;;5027702;28;20088;-85
2021/10/26 09:22:27;;;;;;;6.60;3.08;;;11.40;99.90;;;;;;5028904;28;20409;-85
2021/10/26 09:25:04;;;;;;;5.93;3.40;;;11.50;99.90;;;;;;5041751;28;20104;-84
2021/10/26 09:27:30;;;;;;;6.45;3.60;;;11.60;99.90;;;;;;5032877;28;20021;-85
2021/10/26 09:29:59;;;;;;;6.47;3.00;;;11.80;99.90;;;;;;5027537;28;20017;-85
2021/10/26 09:32:37;;;;;;;6.10;3.55;;;11.90;99.90;;;;;;5045916;28;20021;-85
2021/10/26 09:35:08;;;;;;;7.78;3.53;;;12.30;99.90;;;;;;5047672;28;20028;-85
2021/10/26 09:37:40;;;;;;;5.00;2.75;;;12.50;99.90;;;;;;5045296;28;20040;-85
2021/10/26 09:40:08;;;;;;;5.63;2.80;;;12.70;99.90;;;;;;5036165;28;20034;-85
2021/10/26 09:42:44;;;;;;;5.07;2.40;;;12.90;99.90;;;;;;5046280;28;20033;-85
2021/10/26 09:45:25;;;;;;;5.45;2.67;;;13.10;99.90;;;;;;5047124;28;20648;-85
2021/10/26 09:47:53;;;;;;;6.53;2.37;;;13.10;99.90;;;;;;5042923;28;20025;-85
2021/10/26 09:50:20;;;;;;;4.65;2.15;;;13.20;99.90;;;;;;5035810;28;20029;-85
2021/10/26 09:52:48;;;;;;;6.55;3.10;;;13.10;99.90;;;;;;5033346;28;20120;-85
2021/10/26 09:55:20;;;;;;;5.65;2.53;;;13.10;99.90;;;;;;5037561;28;20091;-85
2021/10/26 09:57:50;;;;;;;;;;;13.00;99.90;;;;;;5043012;28;20051;-85
2021/10/26 10:00:26;;;;;;;4.55;1.80;;;13.00;99.90;;;;;;5028109;28;19951;-85
2021/10/26 10:03:10;;;;;;;4.43;1.10;;;13.00;99.90;;;;;;5038769;28;20494;-85
2021/10/26 10:05:52;;;;;;;2.13;1.00;;;13.00;99.90;;;;;;5033959;28;20033;-84
2021/10/26 10:08:35;;;;;;;2.67;0.90;;;13.10;99.90;;;;;;5025195;28;20452;-85
2021/10/26 10:11:07;;;;;;;1.88;0.88;;;13.10;99.90;;;;;;5043126;28;20453;-85
2021/10/26 10:13:44;;;;;;;1.70;0.60;;;13.00;99.90;;;;;;5042884;28;20109;-85
2021/10/26 10:16:14;;;;;;;2.38;1.00;;;13.10;99.90;;;;;;5026504;28;20026;-85
2021/10/26 10:18:44;;;;;;;2.58;0.90;;;13.10;99.90;;;;;;5047979;28;20119;-84
2021/10/26 10:21:13;;;;;;;2.40;0.80;;;13.20;99.90;;;;;;5039370;28;20382;-85
2021/10/26 10:23:42;;;;;;;3.85;1.00;;;13.30;99.90;;;;;;5041626;28;20424;-85
2021/10/26 10:26:12;;;;;;;2.15;0.60;;;13.50;99.90;;;;;;5046590;28;20039;-85
2021/10/26 10:28:44;;;;;;;2.83;0.95;;;13.60;99.90;;;;;;5032674;28;20629;-85
2021/10/26 10:31:13;;;;;;;2.35;0.50;;;13.60;99.90;;;;;;5035623;28;20099;-85
2021/10/26 10:33:39;;;;;;;1.50;0.60;;;13.40;99.90;;;;;;5130159;23;20043;-83
2021/10/26 10:36:07;;;;;;;1.80;0.60;;;13.40;99.90;;;;;;5084869;28;20040;-84
2021/10/26 10:38:33;;;;;;;1.80;0.60;;;13.40;99.90;;;;;;5094894;28;20029;-82
2021/10/26 10:41:20;;;;;;;2.40;0.60;;;13.60;99.90;;;;;;5083566;28;20071;-86
2021/10/26 10:43:45;;;;;;;1.33;0.50;;;13.80;99.90;;;;;;5063307;28;20033;-83
2021/10/26 10:46:45;;;;;;;3.10;0.68;;;13.90;99.90;;;;;;5060674;28;20028;-83
2021/10/26 10:49:22;;;;;;;1.67;0.63;;;13.90;99.90;;;;;;5071780;28;20505;-83
2021/10/26 10:52:04;;;;;;;1.38;0.50;;;14.00;99.90;;;;;;5059189;28;20108;-82
2021/10/26 10:57:37;;;;;;;1.35;0.40;;;14.00;99.90;;;;;;5080548;28;20467;-84
2021/10/26 11:00:15;;;;;;;2.22;0.60;;;14.00;99.90;;;;;;5069566;28;20024;-84
2021/10/26 11:02:42;;;;;;;1.23;0.50;;;14.00;99.90;;;;;;5066115;28;20096;-85
2021/10/26 11:05:30;;;;;;;3.05;1.02;;;14.00;99.90;;;;;;5071706;28;20382;-85
2021/10/26 11:07:56;;;;;;;1.60;0.50;;;14.00;99.90;;;;;;5079979;28;20023;-84
2021/10/26 11:10:22;;;;;;;1.42;0.50;;;14.00;99.90;;;;;;5075378;28;20036;-84
2021/10/26 11:12:49;;;;;;;3.58;0.70;;;14.20;99.90;;;;;;5080033;28;20021;-83
2021/10/26 11:15:42;;;;;;;2.28;0.60;;;14.30;99.90;;;;;;5076707;28;20013;-85
2021/10/26 11:18:08;;;;;;;2.13;0.80;;;14.40;99.90;;;;;;5068290;28;20055;-85
2021/10/26 11:20:37;;;;;;;2.53;0.65;;;14.50;99.90;;;;;;5079431;28;20028;-84
2021/10/26 11:23:10;;;;;;;1.88;0.70;;;14.50;99.90;;;;;;5074173;28;20084;-83
2021/10/26 11:25:41;;;;;;;1.98;0.57;;;14.60;99.90;;;;;;5077262;28;20027;-85
2021/10/26 11:28:13;;;;;;;2.45;0.70;;;14.60;99.90;;;;;;5069408;28;21836;-83
2021/10/26 11:30:38;;;;;;;;;;;14.70;99.90;;;;;;5078788;28;20576;-86
2021/10/26 11:33:13;;;;;;;1.98;0.60;;;14.60;99.90;;;;;;5076744;28;19920;-85
2021/10/26 11:36:05;;;;;;;2.90;0.65;;;14.50;99.90;;;;;;5077336;28;20062;-84
2021/10/26 11:38:37;;;;;;;2.38;1.05;;;14.50;99.90;;;;;;5080029;28;20029;-85
2021/10/26 11:41:05;;;;;;;2.53;0.70;;;14.50;99.90;;;;;;5067917;28;20104;-86
2021/10/26 11:43:45;;;;;;;1.90;0.65;;;14.40;99.90;;;;;;5076949;28;20035;-83
2021/10/26 11:46:20;;;;;;;2.88;0.77;;;14.40;99.90;;;;;;5084686;28;20100;-84
2021/10/26 11:48:49;;;;;;;1.67;0.57;;;14.30;99.90;;;;;;5080704;28;20028;-85
2021/10/26 11:51:44;;;;;;;1.75;0.60;;;14.30;99.90;;;;;;5084942;28;20024;-84
2021/10/26 11:54:20;;;;;;;2.00;0.60;;;14.30;99.90;;;;;;5081355;28;20039;-84
2021/10/26 11:56:55;;;;;;;1.17;0.43;;;14.30;99.90;;;;;;5082891;28;20025;-84
2021/10/26 11:59:26;;;;;;;0.90;0.50;;;14.20;99.90;;;;;;5082981;28;20025;-85
2021/10/26 12:02:10;;;;;;;2.00;0.50;;;14.20;99.90;;;;;;5075752;28;20437;-84
2021/10/26 12:04:40;;;;;;;2.35;0.85;;;14.10;99.90;;;;;;5078573;28;20092;-85
2021/10/26 12:07:09;;;;;;;1.52;0.43;;;14.10;99.90;;;;;;5075832;28;20024;-84
2021/10/26 12:09:38;;;;;;;1.67;0.40;;;14.10;99.90;;;;;;5075237;28;20032;-84
2021/10/26 12:12:16;;;;;;;0.77;0.40;;;14.10;99.90;;;;;;5080286;28;20041;-84
2021/10/26 12:14:52;;;;;;;3.05;0.47;;;14.00;99.90;;;;;;5073854;28;20021;-84
2021/10/26 12:17:19;;;;;;;4.18;0.63;;;13.90;99.90;;;;;;5082124;28;20021;-85
2021/10/26 12:19:58;;;;;;;1.60;0.65;;;13.80;99.90;;;;;;5081527;28;20125;-84
2021/10/26 12:22:28;;;;;;;1.00;0.47;;;13.80;99.90;;;;;;5060536;28;20129;-84
2021/10/26 12:25:07;;;;;;;1.70;0.77;;;13.70;99.90;;;;;;5059588;28;20504;-83
2021/10/26 12:27:36;;;;;;;2.17;0.80;;;13.70;99.90;;;;;;5062024;28;20021;-83
2021/10/26 12:30:18;;;;;;;2.05;0.60;;;13.70;99.90;;;;;;5066711;28;20032;-84
2021/10/26 12:32:49;;;;;;;1.65;0.40;;;13.70;99.90;;;;;;5080060;28;20024;-82
2021/10/26 12:35:14;;;;;;;1.65;0.73;;;13.80;99.90;;;;;;5078707;28;20029;-84
2021/10/26 12:37:41;;;;;;;1.50;0.63;;;13.80;99.90;;;;;;5082364;28;20088;-83
2021/10/26 12:40:16;;;;;;;1.80;0.90;;;13.80;99.90;;;;;;5072464;28;20033;-83
2021/10/26 12:43:01;;;;;;;1.40;0.50;;;13.90;99.90;;;;;;5074923;28;20033;-84
2021/10/26 12:45:38;;;;;;;2.85;0.88;;;13.90;99.90;;;;;;5077389;28;20457;-83
2021/10/26 12:48:12;;;;;;;1.75;0.60;;;14.00;99.90;;;;;;5075940;28;20032;-83
2021/10/26 12:50:47;;;;;;;2.78;0.90;;;14.00;99.90;;;;;;5071987;28;20025;-84
2021/10/26 12:53:29;;;;;;;2.22;0.70;;;13.90;99.90;;;;;;5072482;28;20052;-84
2021/10/26 12:55:56;;;;;;;2.47;0.93;;;13.90;99.90;;;;;;5071705;28;20024;-84
2021/10/26 12:58:56;;;;;;;2.17;0.60;;;13.90;99.90;;;;;;5081144;28;20470;-84
2021/10/26 13:01:40;;;;;;;1.65;0.63;;;13.80;99.90;;;;;;5045838;28;20742;-83
2021/10/26 13:04:09;;;;;;;1.85;0.50;;;13.80;99.90;;;;;;5081742;28;20064;-84
2021/10/26 13:06:57;;;;;;;0.88;0.30;;;13.70;99.90;;;;;;5081079;28;20025;-81
2021/10/26 13:09:34;;;;;;;2.92;0.43;;;13.60;99.90;;;;;;5073035;28;20046;-84
2021/10/26 13:12:06;;;;;;;1.27;0.35;;;13.50;99.90;;;;;;5076065;28;20697;-84
2021/10/26 13:14:54;;;;;;;;;;;13.50;99.90;;;;;;5077567;28;20085;-84
2021/10/26 13:17:30;;;;;;;0.75;0.35;;;13.50;99.90;;;;;;5078385;28;20283;-85